createdAt,value
2022-11-14T00:01:24.142Z,34.60
2022-11-14T00:04:09.938Z,28.73
2022-11-14T00:06:55.577Z,58.00
2022-11-14T00:09:42.870Z,64.37
2022-11-14T00:12:28.598Z,23.55
2022-11-14T00:15:14.785Z,57.55
2022-11-14T00:18:00.809Z,86.00
2022-11-14T00:20:50.629Z,48.17
2022-11-14T00:23:36.269Z,36.55
2022-11-14T00:26:21.964Z,43.00
2022-11-14T00:29:07.662Z,105.05
2022-11-14T00:31:53.405Z,57.38
2022-11-14T00:34:39.219Z,83.97
2022-11-14T00:37:24.851Z,54.28
2022-11-14T00:40:10.899Z,63.97
2022-11-14T00:42:56.930Z,91.18
2022-11-14T00:45:45.839Z,67.20
2022-11-14T00:48:32.241Z,40.95
2022-11-14T00:51:18.114Z,36.63
2022-11-14T00:54:04.183Z,55.83
2022-11-14T00:56:50.101Z,61.37
2022-11-14T00:59:35.723Z,45.38
2022-11-14T01:02:21.677Z,59.83
2022-11-14T01:05:07.781Z,38.15
2022-11-14T01:07:53.888Z,59.22
2022-11-14T01:10:41.253Z,24.77
2022-11-14T01:13:31.692Z,50.63
2022-11-14T01:16:17.738Z,39.03
2022-11-14T01:19:04.255Z,32.75
2022-11-14T01:21:50.296Z,50.33
2022-11-14T01:24:36.165Z,41.60
2022-11-14T01:27:21.754Z,43.70
2022-11-14T01:30:07.818Z,48.87
2022-11-14T01:32:53.655Z,41.08
2022-11-14T01:35:39.385Z,38.10
2022-11-14T01:38:25.280Z,51.28
2022-11-14T01:41:15.513Z,40.40
2022-11-14T01:44:01.554Z,40.75
2022-11-14T01:46:49.523Z,46.88
2022-11-14T01:49:41.397Z,47.50
2022-11-14T01:52:30.631Z,37.53
2022-11-14T01:55:16.316Z,39.88
2022-11-14T01:58:02.258Z,36.88
2022-11-14T02:00:47.922Z,40.38
2022-11-14T02:03:36.343Z,40.22
2022-11-14T02:06:24.163Z,56.33
2022-11-14T02:09:09.963Z,43.97
2022-11-14T02:11:56.767Z,47.90
2022-11-14T02:14:45.287Z,59.45
2022-11-14T02:17:31.480Z,114.62
2022-11-14T02:20:20.746Z,32.53
2022-11-14T02:23:06.251Z,25.23
2022-11-14T02:25:52.166Z,34.40
2022-11-14T02:28:37.830Z,36.72
2022-11-14T02:31:23.565Z,65.55
2022-11-14T02:34:09.390Z,50.35
2022-11-14T02:36:55.398Z,38.03
2022-11-14T02:39:41.644Z,34.42
2022-11-14T02:42:27.261Z,79.57
2022-11-14T02:45:13.595Z,103.20
2022-11-14T02:47:59.795Z,60.45
2022-11-14T02:50:48.612Z,42.13
2022-11-14T02:53:34.582Z,51.55
2022-11-14T02:56:20.503Z,49.55
2022-11-14T02:59:06.420Z,74.55
2022-11-14T03:01:52.198Z,81.03
2022-11-14T03:04:37.808Z,59.33
2022-11-14T03:07:23.785Z,51.97
2022-11-14T03:10:09.817Z,75.60
2022-11-14T03:12:56.411Z,87.32
2022-11-14T03:15:41.976Z,43.97
2022-11-14T03:18:28.015Z,47.42
2022-11-14T03:21:16.256Z,68.50
2022-11-14T03:24:02.271Z,41.78
2022-11-14T03:26:48.024Z,84.40
2022-11-14T03:29:34.074Z,64.28
2022-11-14T03:32:19.950Z,51.22
2022-11-14T03:35:06.483Z,94.20
2022-11-14T03:37:56.195Z,35.17
2022-11-14T03:40:42.536Z,37.53
2022-11-14T03:43:32.124Z,43.45
2022-11-14T03:46:18.362Z,58.85
2022-11-14T03:49:04.314Z,52.78
2022-11-14T03:51:50.725Z,60.55
2022-11-14T03:54:36.773Z,91.65
2022-11-14T03:57:22.341Z,79.03
2022-11-14T04:00:09.169Z,48.00
2022-11-14T04:02:56.259Z,56.92
2022-11-14T04:05:45.520Z,70.90
2022-11-14T04:08:32.280Z,73.72
2022-11-14T04:11:19.087Z,118.13
2022-11-14T04:14:05.081Z,73.12
2022-11-14T04:16:51.331Z,86.15
2022-11-14T04:19:37.163Z,54.58
2022-11-14T04:22:23.080Z,68.85
2022-11-14T04:25:09.526Z,45.83
2022-11-14T04:27:55.288Z,84.70
2022-11-14T04:30:41.428Z,71.25
2022-11-14T04:33:27.697Z,43.50
2022-11-14T04:36:13.336Z,58.03
2022-11-14T04:38:59.218Z,28.77
2022-11-14T04:41:45.222Z,40.45
2022-11-14T04:44:30.898Z,34.95
2022-11-14T04:47:16.909Z,37.33
2022-11-14T04:50:03.101Z,38.58
2022-11-14T04:52:52.880Z,28.08
2022-11-14T04:55:38.675Z,35.47
2022-11-14T04:58:24.821Z,37.85
2022-11-14T05:01:12.147Z,54.38
2022-11-14T05:03:57.944Z,29.35
2022-11-14T05:06:44.067Z,46.50
2022-11-14T05:09:30.061Z,43.35
2022-11-14T05:12:15.923Z,34.92
2022-11-14T05:15:01.640Z,34.45
2022-11-14T05:17:47.290Z,37.95
2022-11-14T05:20:33.050Z,41.90
2022-11-14T05:23:21.254Z,36.45
2022-11-14T05:26:15.917Z,41.88
2022-11-14T05:29:01.626Z,40.38
2022-11-14T05:31:47.253Z,40.67
2022-11-14T05:34:32.864Z,37.97
2022-11-14T05:37:18.648Z,37.97
2022-11-14T05:40:05.513Z,37.67
2022-11-14T05:42:54.990Z,22.65
2022-11-14T05:45:40.873Z,52.62
2022-11-14T05:48:26.868Z,54.45
2022-11-14T05:51:13.379Z,53.03
2022-11-14T05:53:59.318Z,26.90
2022-11-14T05:56:45.063Z,45.12
2022-11-14T05:59:30.940Z,56.60
2022-11-14T06:02:16.788Z,41.58
2022-11-14T06:05:02.934Z,29.33
2022-11-14T06:07:48.823Z,28.90
2022-11-14T06:10:34.911Z,34.92
2022-11-14T06:13:20.500Z,30.73
2022-11-14T06:16:09.448Z,37.17
2022-11-14T06:18:56.054Z,41.45
2022-11-14T06:21:41.892Z,47.20
2022-11-14T06:24:27.618Z,32.13
2022-11-14T06:27:13.430Z,29.87
2022-11-14T06:29:59.183Z,34.20
2022-11-14T06:32:44.980Z,29.77
2022-11-14T06:35:33.091Z,32.75
2022-11-14T06:38:18.921Z,50.92
2022-11-14T06:41:13.274Z,27.05
2022-11-14T06:43:59.017Z,38.55
2022-11-14T06:46:44.823Z,48.87
2022-11-14T06:49:30.542Z,34.05
2022-11-14T06:52:16.320Z,32.17
2022-11-14T06:55:01.972Z,46.28
2022-11-14T06:57:52.941Z,32.03
2022-11-14T07:00:38.722Z,31.83
2022-11-14T07:03:24.475Z,28.98
2022-11-14T07:06:14.697Z,37.33
2022-11-14T07:09:00.875Z,38.45
2022-11-14T07:11:47.642Z,34.45
2022-11-14T07:14:33.622Z,33.65
2022-11-14T07:17:19.360Z,36.05
2022-11-14T07:20:06.046Z,28.98
2022-11-14T07:22:51.665Z,36.75
2022-11-14T07:25:37.447Z,31.73
2022-11-14T07:28:23.279Z,29.15
2022-11-14T07:31:14.165Z,31.33
2022-11-14T07:34:00.084Z,28.15
2022-11-14T07:36:45.872Z,28.02
2022-11-14T07:39:31.614Z,30.45
2022-11-14T07:42:17.365Z,33.20
2022-11-14T07:45:03.275Z,31.52
2022-11-14T07:47:49.055Z,35.20
2022-11-14T07:50:35.093Z,34.85
2022-11-14T07:53:20.789Z,30.85
2022-11-14T07:56:11.183Z,34.85
2022-11-14T07:58:56.773Z,31.87
2022-11-14T08:01:42.507Z,30.60
2022-11-14T08:04:28.309Z,31.00
2022-11-14T08:07:14.030Z,31.40
2022-11-14T08:09:59.649Z,30.88
2022-11-14T08:12:45.838Z,32.38
2022-11-14T08:15:32.049Z,30.37
2022-11-14T08:18:17.771Z,35.00
2022-11-14T08:21:04.698Z,32.60
2022-11-14T08:23:50.296Z,30.52
2022-11-14T08:26:36.345Z,33.75
2022-11-14T08:29:22.200Z,29.83
2022-11-14T08:32:07.810Z,31.83
2022-11-14T08:34:53.539Z,27.95
2022-11-14T08:37:39.228Z,27.80
2022-11-14T08:40:25.305Z,28.05
2022-11-14T08:43:11.715Z,29.50
2022-11-14T08:46:01.485Z,23.77
2022-11-14T08:48:48.065Z,30.30
2022-11-14T08:51:36.467Z,29.20
2022-11-14T08:54:22.353Z,25.30
2022-11-14T08:57:08.355Z,25.30
2022-11-14T08:59:55.398Z,23.98
2022-11-14T09:02:41.449Z,25.62
2022-11-14T09:05:27.367Z,26.48
2022-11-14T09:08:13.351Z,26.42
2022-11-14T09:11:05.623Z,27.20
2022-11-14T09:13:52.104Z,27.08
2022-11-14T09:16:37.806Z,25.17
2022-11-14T09:19:24.125Z,26.90
2022-11-14T09:22:09.712Z,25.17
2022-11-14T09:24:55.518Z,22.90
2022-11-14T09:27:41.406Z,25.27
2022-11-14T09:30:27.072Z,25.77
2022-11-14T09:33:13.138Z,27.27
2022-11-14T09:35:59.952Z,23.98
2022-11-14T09:38:46.434Z,23.10
2022-11-14T09:42:01.392Z,31.48
2022-11-14T09:44:55.942Z,28.42
2022-11-14T09:47:47.481Z,26.67
2022-11-14T09:50:34.668Z,23.83
2022-11-14T09:53:29.262Z,27.17
2022-11-14T09:56:25.234Z,27.08
2022-11-14T09:59:12.009Z,22.42
2022-11-14T10:02:12.850Z,29.63
2022-11-14T10:05:13.793Z,24.73
2022-11-14T10:08:18.343Z,29.12
2022-11-14T10:11:15.853Z,26.37
2022-11-14T10:14:19.494Z,29.83
2022-11-14T10:17:10.732Z,30.70
2022-11-14T10:20:35.367Z,28.33
2022-11-14T10:23:33.548Z,29.25
2022-11-14T10:26:30.010Z,38.10
2022-11-14T10:29:33.750Z,27.17
2022-11-14T10:32:33.550Z,28.40
2022-11-14T10:35:33.831Z,30.12
2022-11-14T10:38:30.249Z,31.45
2022-11-14T10:41:34.559Z,25.73
2022-11-14T10:44:27.099Z,27.75
2022-11-14T10:47:15.879Z,25.10
2022-11-14T10:50:12.144Z,24.90
2022-11-14T10:53:01.885Z,24.17
2022-11-14T10:56:03.598Z,26.23
2022-11-14T10:58:50.713Z,28.08
2022-11-14T11:01:41.285Z,29.17
2022-11-14T11:04:36.991Z,28.58
2022-11-14T11:07:43.778Z,26.98
2022-11-14T11:10:48.687Z,27.73
2022-11-14T11:13:36.996Z,22.13
2022-11-14T11:16:24.648Z,23.17
2022-11-14T11:19:24.730Z,25.65
2022-11-14T11:22:33.321Z,26.20
2022-11-14T11:25:30.307Z,24.77
2022-11-14T11:28:19.019Z,24.45
2022-11-14T11:31:09.280Z,28.73
2022-11-14T11:33:55.482Z,29.00
2022-11-14T11:36:45.444Z,22.55
2022-11-14T11:39:35.156Z,23.85
2022-11-14T11:46:06.209Z,29.30
2022-11-14T11:48:57.500Z,24.87
2022-11-14T11:51:45.542Z,30.85
2022-11-14T11:54:44.325Z,26.33
2022-11-14T11:57:45.417Z,27.40
2022-11-14T12:00:31.844Z,23.87
2022-11-14T12:03:20.978Z,29.77
2022-11-14T12:06:27.303Z,24.63
2022-11-14T12:09:22.115Z,31.25
2022-11-14T12:12:18.142Z,22.87
2022-11-14T12:15:22.826Z,26.30
2022-11-14T12:18:16.880Z,27.15
2022-11-14T12:21:19.642Z,29.10
2022-11-14T12:24:23.746Z,33.00
2022-11-14T12:27:40.311Z,30.15
2022-11-14T12:30:26.703Z,26.85
2022-11-14T12:33:19.795Z,27.62
2022-11-14T12:36:09.180Z,24.63
2022-11-14T12:38:55.574Z,22.80
2022-11-14T12:41:41.932Z,23.55
2022-11-14T12:44:27.626Z,23.52
2022-11-14T12:47:19.402Z,22.65
2022-11-14T12:50:35.151Z,24.48
2022-11-14T12:53:35.825Z,21.58
2022-11-14T12:56:30.891Z,24.65
2022-11-14T12:59:30.224Z,20.00
2022-11-14T13:02:31.140Z,19.58
2022-11-14T13:05:22.532Z,17.70
2022-11-14T13:08:35.487Z,17.37
2022-11-14T13:15:18.234Z,17.42
2022-11-14T13:21:45.629Z,16.90
2022-11-14T13:24:59.797Z,15.18
2022-11-14T13:28:06.630Z,17.55
2022-11-14T13:31:18.431Z,16.67
2022-11-14T13:34:29.025Z,15.05
2022-11-14T13:37:39.943Z,16.23
2022-11-14T13:40:38.105Z,15.10
2022-11-14T13:43:38.807Z,16.80
2022-11-14T13:46:37.958Z,14.82
2022-11-14T13:49:41.863Z,16.37
2022-11-14T13:52:31.494Z,18.42
2022-11-14T13:55:22.943Z,17.48
2022-11-14T13:58:43.938Z,17.65
2022-11-14T14:01:29.536Z,21.55
2022-11-14T14:04:29.773Z,17.95
2022-11-14T14:07:44.384Z,17.00
2022-11-14T14:10:57.749Z,16.80
2022-11-14T14:14:01.766Z,16.35
2022-11-14T14:17:10.036Z,16.17
2022-11-14T14:20:15.420Z,19.05
2022-11-14T14:23:16.370Z,16.60
2022-11-14T14:26:28.299Z,22.17
2022-11-14T14:29:24.217Z,19.33
2022-11-14T14:32:18.400Z,23.25
2022-11-14T14:35:26.442Z,23.80
2022-11-14T14:38:14.203Z,25.62
2022-11-14T14:41:00.302Z,19.10
2022-11-14T14:43:51.942Z,20.00
2022-11-14T14:46:37.606Z,21.98
2022-11-14T14:49:27.513Z,23.73
2022-11-14T14:52:35.962Z,20.02
2022-11-14T14:55:33.233Z,25.05
2022-11-14T14:58:22.659Z,24.55
2022-11-14T15:01:19.720Z,24.37
2022-11-14T15:04:07.573Z,27.80
2022-11-14T15:06:55.981Z,27.67
2022-11-14T15:09:52.115Z,24.60
2022-11-14T15:12:40.180Z,28.12
2022-11-14T15:15:27.075Z,29.23
2022-11-14T15:18:32.604Z,26.65
2022-11-14T15:21:24.499Z,30.80
2022-11-14T15:24:23.153Z,31.80
2022-11-14T15:27:12.725Z,30.70
2022-11-14T15:30:02.030Z,29.12
2022-11-14T15:32:50.006Z,27.23
2022-11-14T15:35:37.886Z,29.42
2022-11-14T15:41:33.302Z,33.10
2022-11-14T15:44:33.094Z,33.17
2022-11-14T15:47:23.169Z,29.45
2022-11-14T15:50:11.543Z,29.45
2022-11-14T15:53:06.907Z,32.42
2022-11-14T15:55:52.756Z,29.23
2022-11-14T15:58:38.471Z,32.92
2022-11-14T16:01:25.972Z,32.70
2022-11-14T16:04:18.363Z,32.10
2022-11-14T16:07:04.857Z,32.83
2022-11-14T16:09:51.078Z,40.67
2022-11-14T16:12:37.140Z,33.55
2022-11-14T16:15:22.680Z,37.78
2022-11-14T16:18:08.503Z,32.53
2022-11-14T16:20:58.636Z,33.95
2022-11-14T16:23:44.962Z,29.48
2022-11-14T16:26:31.317Z,35.33
2022-11-14T16:29:19.125Z,34.45
2022-11-14T16:32:04.834Z,36.38
2022-11-14T16:34:50.537Z,33.92
2022-11-14T16:37:36.344Z,37.22
2022-11-14T16:40:27.688Z,36.00
2022-11-14T16:43:14.525Z,34.25
2022-11-14T16:46:07.264Z,34.05
2022-11-14T16:48:54.686Z,37.45
2022-11-14T16:51:50.271Z,39.03
2022-11-14T16:54:36.761Z,40.20
2022-11-14T16:57:23.330Z,40.88
2022-11-14T17:00:12.306Z,41.03
2022-11-14T17:02:58.306Z,39.88
2022-11-14T17:05:45.159Z,39.45
2022-11-14T17:08:30.743Z,41.80
2022-11-14T17:11:16.668Z,43.03
2022-11-14T17:14:02.274Z,54.63
2022-11-14T17:16:48.101Z,60.08
2022-11-14T17:19:34.147Z,64.47
2022-11-14T17:22:20.072Z,78.20
2022-11-14T17:25:06.364Z,88.07
2022-11-14T17:27:52.254Z,76.78
2022-11-14T17:30:44.009Z,56.75
2022-11-14T17:33:29.884Z,56.45
2022-11-14T17:36:16.102Z,56.37
2022-11-14T17:39:01.944Z,53.95
2022-11-14T17:41:47.627Z,51.70
2022-11-14T17:44:33.408Z,56.13
2022-11-14T17:47:20.090Z,57.47
2022-11-14T17:50:06.184Z,55.45
2022-11-14T17:52:52.308Z,46.95
2022-11-14T17:55:38.531Z,48.33
2022-11-14T17:58:25.073Z,47.10
2022-11-14T18:01:16.391Z,47.15
2022-11-14T18:04:06.058Z,46.60
2022-11-14T18:06:52.834Z,45.85
2022-11-14T18:09:38.978Z,40.30
2022-11-14T18:12:24.878Z,49.28
2022-11-14T18:15:10.912Z,41.47
2022-11-14T18:17:56.642Z,42.58
2022-11-14T18:20:42.473Z,38.10
2022-11-14T18:23:27.970Z,39.78
2022-11-14T18:26:15.346Z,41.45
2022-11-14T18:29:02.242Z,37.28
2022-11-14T18:31:48.400Z,46.42
2022-11-14T18:34:36.934Z,66.43
2022-11-14T18:37:23.356Z,49.67
2022-11-14T18:40:16.093Z,51.45
2022-11-14T18:43:02.795Z,44.70
2022-11-14T18:45:48.625Z,54.28
2022-11-14T18:48:35.914Z,61.55
2022-11-14T18:51:24.099Z,63.90
2022-11-14T18:54:12.144Z,62.30
2022-11-14T18:56:57.946Z,61.30
2022-11-14T18:59:43.517Z,68.62
2022-11-14T19:02:29.606Z,60.22
2022-11-14T19:05:15.621Z,55.28
2022-11-14T19:08:01.546Z,58.58
2022-11-14T19:10:47.380Z,54.95
2022-11-14T19:13:33.566Z,55.00
2022-11-14T19:16:19.320Z,56.55
2022-11-14T19:19:06.439Z,57.67
2022-11-14T19:21:52.425Z,60.58
2022-11-14T19:24:42.865Z,55.78
2022-11-14T19:27:28.914Z,55.40
2022-11-14T19:30:16.435Z,52.78
2022-11-14T19:33:03.310Z,62.70
2022-11-14T19:35:49.444Z,64.30
2022-11-14T19:38:35.374Z,60.58
2022-11-14T19:41:22.172Z,64.78
2022-11-14T19:44:08.024Z,60.85
2022-11-14T19:46:53.802Z,65.57
2022-11-14T19:49:39.497Z,68.00
2022-11-14T19:52:25.286Z,109.18
2022-11-14T19:55:11.034Z,120.25
2022-11-14T19:57:58.810Z,106.63
2022-11-14T20:00:44.844Z,95.25
2022-11-14T20:03:30.911Z,95.82
2022-11-14T20:06:21.680Z,86.40
2022-11-14T20:09:09.375Z,81.78
2022-11-14T20:11:55.317Z,76.45
2022-11-14T20:14:41.184Z,79.05
2022-11-14T20:17:26.984Z,80.30
2022-11-14T20:20:12.855Z,78.65
2022-11-14T20:22:58.526Z,74.62
2022-11-14T20:25:44.282Z,78.62
2022-11-14T20:28:29.977Z,87.45
2022-11-14T20:31:19.078Z,88.72
2022-11-14T20:34:05.242Z,80.85
2022-11-14T20:39:57.177Z,76.55
2022-11-14T20:42:47.122Z,73.53
2022-11-14T20:45:32.856Z,77.15
2022-11-14T20:48:18.641Z,73.78
2022-11-14T20:51:06.773Z,74.68
2022-11-14T20:53:55.113Z,74.53
2022-11-14T20:56:41.125Z,66.93
2022-11-14T20:59:26.687Z,68.20
2022-11-14T21:02:13.073Z,71.10
2022-11-14T21:04:59.442Z,70.37
2022-11-14T21:07:45.422Z,70.85
2022-11-14T21:10:46.098Z,68.47
2022-11-14T21:13:53.679Z,72.97
2022-11-14T21:16:40.189Z,68.45
2022-11-14T21:19:26.195Z,74.82
2022-11-14T21:22:13.142Z,72.93
2022-11-14T21:24:58.967Z,68.28
2022-11-14T21:27:44.754Z,68.32
2022-11-14T21:30:34.521Z,68.20
2022-11-14T21:33:20.810Z,70.90
2022-11-14T21:36:37.974Z,70.10
2022-11-14T21:39:17.687Z,76.80
2022-11-14T21:42:04.147Z,78.65
2022-11-14T21:44:49.909Z,90.10
2022-11-14T21:47:35.552Z,93.75
2022-11-14T21:50:21.595Z,88.15
2022-11-14T21:53:15.779Z,86.12
2022-11-14T21:56:16.034Z,115.37
2022-11-14T21:59:12.663Z,103.45
2022-11-14T22:02:17.341Z,108.63
2022-11-14T22:05:03.412Z,95.10
2022-11-14T22:07:49.137Z,112.03
2022-11-14T22:10:34.899Z,121.65
2022-11-14T22:13:20.648Z,114.03
2022-11-14T22:16:07.330Z,112.70
2022-11-14T22:18:53.425Z,106.85
2022-11-14T22:21:39.370Z,94.95
2022-11-14T22:24:24.936Z,86.28
2022-11-14T22:27:10.994Z,84.28
2022-11-14T22:29:56.853Z,87.07
2022-11-14T22:32:42.576Z,80.62
2022-11-14T22:35:28.545Z,81.65
2022-11-14T22:38:14.357Z,73.97
2022-11-14T22:41:00.611Z,73.87
2022-11-14T22:43:46.875Z,68.28
2022-11-14T22:46:32.612Z,66.07
2022-11-14T22:49:21.020Z,70.93
2022-11-14T22:52:07.150Z,72.28
2022-11-14T22:54:52.813Z,93.18
2022-11-14T22:57:38.398Z,78.05
2022-11-14T23:00:24.610Z,72.25
2022-11-14T23:03:10.486Z,81.78
2022-11-14T23:05:56.467Z,72.00
2022-11-14T23:08:42.497Z,67.37
2022-11-14T23:11:29.806Z,53.65
2022-11-14T23:14:15.691Z,96.35
2022-11-14T23:17:01.373Z,76.25
2022-11-14T23:19:47.050Z,44.67
2022-11-14T23:22:32.693Z,44.92
2022-11-14T23:25:18.418Z,56.53
2022-11-14T23:28:04.249Z,51.97
2022-11-14T23:30:50.000Z,42.95
2022-11-14T23:33:35.633Z,61.53
2022-11-14T23:36:21.639Z,46.10
2022-11-14T23:39:07.202Z,68.32
2022-11-14T23:41:52.787Z,57.38
2022-11-14T23:44:38.786Z,55.30
2022-11-14T23:47:24.594Z,57.05
2022-11-14T23:50:10.445Z,42.70
2022-11-14T23:52:56.101Z,41.03
2022-11-14T23:55:42.077Z,53.03
2022-11-14T23:58:29.317Z,62.62
